sensor_id;sensor_type;location;lat;lon;timestamp;P1;durP1;ratioP1;P2;durP2;ratioP2
15049;SDS011;7622;42.724;23.250;2023-02-21T00:00:42;3.20;;;2.90;;
15049;SDS011;7622;42.724;23.250;2023-02-21T00:03:26;7.67;;;3.97;;
15049;SDS011;7622;42.724;23.250;2023-02-21T00:06:10;6.77;;;3.20;;
15049;SDS011;7622;42.724;23.250;2023-02-21T00:08:54;4.97;;;3.47;;
15049;SDS011;7622;42.724;23.250;2023-02-21T00:11:40;4.73;;;3.27;;
15049;SDS011;7622;42.724;23.250;2023-02-21T00:14:26;3.80;;;2.93;;
15049;SDS011;7622;42.724;23.250;2023-02-21T00:17:11;6.80;;;3.70;;
15049;SDS011;7622;42.724;23.250;2023-02-21T00:19:55;4.97;;;3.67;;
15049;SDS011;7622;42.724;23.250;2023-02-21T00:22:39;6.10;;;3.10;;
15049;SDS011;7622;42.724;23.250;2023-02-21T00:25:24;3.27;;;2.93;;
15049;SDS011;7622;42.724;23.250;2023-02-21T00:28:08;6.27;;;2.97;;
15049;SDS011;7622;42.724;23.250;2023-02-21T00:30:54;3.83;;;3.10;;
15049;SDS011;7622;42.724;23.250;2023-02-21T00:33:39;4.83;;;3.20;;
15049;SDS011;7622;42.724;23.250;2023-02-21T00:36:23;9.53;;;3.13;;
15049;SDS011;7622;42.724;23.250;2023-02-21T00:39:08;4.17;;;2.60;;
15049;SDS011;7622;42.724;23.250;2023-02-21T00:41:52;4.07;;;2.77;;
15049;SDS011;7622;42.724;23.250;2023-02-21T00:44:36;5.73;;;2.70;;
15049;SDS011;7622;42.724;23.250;2023-02-21T00:47:22;2.77;;;2.53;;
15049;SDS011;7622;42.724;23.250;2023-02-21T00:50:07;3.17;;;2.83;;
15049;SDS011;7622;42.724;23.250;2023-02-21T00:52:51;2.60;;;2.40;;
15049;SDS011;7622;42.724;23.250;2023-02-21T00:55:35;3.63;;;2.70;;
15049;SDS011;7622;42.724;23.250;2023-02-21T00:58:20;4.03;;;2.53;;
15049;SDS011;7622;42.724;23.250;2023-02-21T01:01:04;6.50;;;2.70;;
15049;SDS011;7622;42.724;23.250;2023-02-21T01:03:50;3.20;;;2.30;;
15049;SDS011;7622;42.724;23.250;2023-02-21T01:06:34;4.03;;;2.80;;
15049;SDS011;7622;42.724;23.250;2023-02-21T01:09:19;4.40;;;2.80;;
15049;SDS011;7622;42.724;23.250;2023-02-21T01:12:03;2.20;;;2.00;;
15049;SDS011;7622;42.724;23.250;2023-02-21T01:14:48;5.00;;;2.10;;
15049;SDS011;7622;42.724;23.250;2023-02-21T01:17:32;3.17;;;2.27;;
15049;SDS011;7622;42.724;23.250;2023-02-21T01:20:18;3.37;;;1.87;;
15049;SDS011;7622;42.724;23.250;2023-02-21T01:23:02;2.73;;;2.20;;
15049;SDS011;7622;42.724;23.250;2023-02-21T01:25:47;2.30;;;2.10;;
15049;SDS011;7622;42.724;23.250;2023-02-21T01:28:31;2.33;;;2.07;;
15049;SDS011;7622;42.724;23.250;2023-02-21T01:31:16;3.17;;;2.43;;
15049;SDS011;7622;42.724;23.250;2023-02-21T01:34:01;2.67;;;2.47;;
15049;SDS011;7622;42.724;23.250;2023-02-21T01:36:46;3.03;;;2.70;;
15049;SDS011;7622;42.724;23.250;2023-02-21T01:39:34;2.70;;;2.50;;
15049;SDS011;7622;42.724;23.250;2023-02-21T01:42:18;3.83;;;3.10;;
15049;SDS011;7622;42.724;23.250;2023-02-21T01:48:24;3.33;;;2.13;;
15049;SDS011;7622;42.724;23.250;2023-02-21T01:51:11;2.47;;;2.27;;
15049;SDS011;7622;42.724;23.250;2023-02-21T01:54:00;3.00;;;2.63;;
15049;SDS011;7622;42.724;23.250;2023-02-21T01:56:46;3.30;;;2.77;;
15049;SDS011;7622;42.724;23.250;2023-02-21T01:59:31;4.77;;;2.80;;
15049;SDS011;7622;42.724;23.250;2023-02-21T02:02:17;5.53;;;2.90;;
15049;SDS011;7622;42.724;23.250;2023-02-21T02:05:07;3.57;;;2.60;;
15049;SDS011;7622;42.724;23.250;2023-02-21T02:07:54;3.27;;;2.20;;
15049;SDS011;7622;42.724;23.250;2023-02-21T02:10:40;2.60;;;2.40;;
15049;SDS011;7622;42.724;23.250;2023-02-21T02:13:31;4.63;;;2.30;;
15049;SDS011;7622;42.724;23.250;2023-02-21T02:16:15;2.93;;;2.50;;
15049;SDS011;7622;42.724;23.250;2023-02-21T02:19:03;3.30;;;2.70;;
15049;SDS011;7622;42.724;23.250;2023-02-21T02:21:54;3.07;;;2.47;;
15049;SDS011;7622;42.724;23.250;2023-02-21T02:24:42;4.13;;;2.70;;
15049;SDS011;7622;42.724;23.250;2023-02-21T02:30:45;2.80;;;2.40;;
15049;SDS011;7622;42.724;23.250;2023-02-21T02:33:36;3.53;;;2.47;;
15049;SDS011;7622;42.724;23.250;2023-02-21T02:36:22;2.20;;;2.10;;
15049;SDS011;7622;42.724;23.250;2023-02-21T02:38:55;3.13;;;2.43;;
15049;SDS011;7622;42.724;23.250;2023-02-21T02:41:33;3.73;;;2.07;;
15049;SDS011;7622;42.724;23.250;2023-02-21T02:44:13;2.33;;;2.13;;
15049;SDS011;7622;42.724;23.250;2023-02-21T02:46:45;2.77;;;2.00;;
15049;SDS011;7622;42.724;23.250;2023-02-21T02:49:16;2.30;;;2.10;;
15049;SDS011;7622;42.724;23.250;2023-02-21T02:51:47;2.17;;;2.00;;
15049;SDS011;7622;42.724;23.250;2023-02-21T02:54:15;2.13;;;1.70;;
15049;SDS011;7622;42.724;23.250;2023-02-21T02:56:43;2.90;;;2.10;;
15049;SDS011;7622;42.724;23.250;2023-02-21T02:59:11;3.10;;;1.83;;
15049;SDS011;7622;42.724;23.250;2023-02-21T03:01:53;4.23;;;1.90;;
15049;SDS011;7622;42.724;23.250;2023-02-21T03:04:46;2.77;;;2.23;;
15049;SDS011;7622;42.724;23.250;2023-02-21T03:07:32;2.50;;;2.30;;
15049;SDS011;7622;42.724;23.250;2023-02-21T03:10:10;2.37;;;2.17;;
15049;SDS011;7622;42.724;23.250;2023-02-21T03:12:44;2.10;;;1.93;;
15049;SDS011;7622;42.724;23.250;2023-02-21T03:15:16;3.60;;;2.40;;
15049;SDS011;7622;42.724;23.250;2023-02-21T03:17:48;4.40;;;2.17;;
15049;SDS011;7622;42.724;23.250;2023-02-21T03:20:20;3.93;;;2.13;;
15049;SDS011;7622;42.724;23.250;2023-02-21T03:22:50;4.97;;;2.60;;
15049;SDS011;7622;42.724;23.250;2023-02-21T03:25:19;3.17;;;2.60;;
15049;SDS011;7622;42.724;23.250;2023-02-21T03:27:48;3.47;;;2.63;;
15049;SDS011;7622;42.724;23.250;2023-02-21T03:30:18;3.47;;;2.50;;
15049;SDS011;7622;42.724;23.250;2023-02-21T03:32:46;4.10;;;3.17;;
15049;SDS011;7622;42.724;23.250;2023-02-21T03:35:16;4.50;;;2.47;;
15049;SDS011;7622;42.724;23.250;2023-02-21T03:37:44;4.80;;;2.40;;
15049;SDS011;7622;42.724;23.250;2023-02-21T03:40:16;4.53;;;2.93;;
15049;SDS011;7622;42.724;23.250;2023-02-21T03:42:45;4.93;;;2.70;;
15049;SDS011;7622;42.724;23.250;2023-02-21T03:45:12;4.57;;;3.03;;
15049;SDS011;7622;42.724;23.250;2023-02-21T03:47:40;3.70;;;2.70;;
15049;SDS011;7622;42.724;23.250;2023-02-21T03:50:07;3.47;;;3.07;;
15049;SDS011;7622;42.724;23.250;2023-02-21T03:52:34;4.10;;;3.10;;
15049;SDS011;7622;42.724;23.250;2023-02-21T03:55:01;4.93;;;2.53;;
15049;SDS011;7622;42.724;23.250;2023-02-21T03:57:30;3.10;;;2.80;;
15049;SDS011;7622;42.724;23.250;2023-02-21T03:59:57;3.10;;;2.43;;
15049;SDS011;7622;42.724;23.250;2023-02-21T04:02:24;3.53;;;2.53;;
15049;SDS011;7622;42.724;23.250;2023-02-21T04:04:51;3.57;;;2.97;;
15049;SDS011;7622;42.724;23.250;2023-02-21T04:07:19;5.70;;;2.70;;
15049;SDS011;7622;42.724;23.250;2023-02-21T04:09:46;2.93;;;2.43;;
15049;SDS011;7622;42.724;23.250;2023-02-21T04:12:14;3.57;;;2.20;;
15049;SDS011;7622;42.724;23.250;2023-02-21T04:14:43;5.70;;;2.53;;
15049;SDS011;7622;42.724;23.250;2023-02-21T04:17:10;3.27;;;2.33;;
15049;SDS011;7622;42.724;23.250;2023-02-21T04:19:37;4.03;;;2.80;;
15049;SDS011;7622;42.724;23.250;2023-02-21T04:22:04;4.70;;;2.53;;
15049;SDS011;7622;42.724;23.250;2023-02-21T04:24:31;5.97;;;2.50;;
15049;SDS011;7622;42.724;23.250;2023-02-21T04:26:58;5.00;;;2.57;;
15049;SDS011;7622;42.724;23.250;2023-02-21T04:29:26;4.87;;;2.20;;
15049;SDS011;7622;42.724;23.250;2023-02-21T04:31:54;4.20;;;2.43;;
15049;SDS011;7622;42.724;23.250;2023-02-21T04:34:21;3.20;;;2.00;;
15049;SDS011;7622;42.724;23.250;2023-02-21T04:36:49;7.23;;;2.30;;
15049;SDS011;7622;42.724;23.250;2023-02-21T04:39:16;2.67;;;2.33;;
15049;SDS011;7622;42.724;23.250;2023-02-21T04:41:43;7.20;;;2.40;;
15049;SDS011;7622;42.724;23.250;2023-02-21T04:44:10;2.47;;;1.93;;
15049;SDS011;7622;42.724;23.250;2023-02-21T04:46:38;4.50;;;2.77;;
15049;SDS011;7622;42.724;23.250;2023-02-21T04:49:07;3.63;;;2.77;;
15049;SDS011;7622;42.724;23.250;2023-02-21T04:51:34;3.77;;;3.10;;
15049;SDS011;7622;42.724;23.250;2023-02-21T04:54:01;6.70;;;2.80;;
15049;SDS011;7622;42.724;23.250;2023-02-21T04:56:28;3.13;;;2.83;;
15049;SDS011;7622;42.724;23.250;2023-02-21T04:58:56;3.27;;;2.83;;
15049;SDS011;7622;42.724;23.250;2023-02-21T05:01:26;7.57;;;3.63;;
15049;SDS011;7622;42.724;23.250;2023-02-21T05:03:55;6.67;;;2.90;;
15049;SDS011;7622;42.724;23.250;2023-02-21T05:06:24;5.33;;;2.90;;
15049;SDS011;7622;42.724;23.250;2023-02-21T05:08:52;4.63;;;2.80;;
15049;SDS011;7622;42.724;23.250;2023-02-21T05:11:20;6.20;;;3.33;;
15049;SDS011;7622;42.724;23.250;2023-02-21T05:13:48;5.07;;;3.63;;
15049;SDS011;7622;42.724;23.250;2023-02-21T05:16:15;6.77;;;3.30;;
15049;SDS011;7622;42.724;23.250;2023-02-21T05:18:43;5.77;;;3.07;;
15049;SDS011;7622;42.724;23.250;2023-02-21T05:21:11;11.87;;;3.47;;
15049;SDS011;7622;42.724;23.250;2023-02-21T05:23:41;4.77;;;2.90;;
15049;SDS011;7622;42.724;23.250;2023-02-21T05:26:20;4.63;;;2.67;;
15049;SDS011;7622;42.724;23.250;2023-02-21T05:28:49;5.00;;;3.03;;
15049;SDS011;7622;42.724;23.250;2023-02-21T05:31:17;4.53;;;2.90;;
15049;SDS011;7622;42.724;23.250;2023-02-21T05:33:46;3.97;;;3.40;;
15049;SDS011;7622;42.724;23.250;2023-02-21T05:36:13;7.57;;;3.37;;
15049;SDS011;7622;42.724;23.250;2023-02-21T05:38:47;6.70;;;2.83;;
15049;SDS011;7622;42.724;23.250;2023-02-21T05:41:15;7.43;;;3.93;;
15049;SDS011;7622;42.724;23.250;2023-02-21T05:43:43;5.97;;;3.73;;
15049;SDS011;7622;42.724;23.250;2023-02-21T05:46:17;7.77;;;3.43;;
15049;SDS011;7622;42.724;23.250;2023-02-21T05:48:47;5.93;;;3.30;;
15049;SDS011;7622;42.724;23.250;2023-02-21T05:51:14;8.83;;;3.40;;
15049;SDS011;7622;42.724;23.250;2023-02-21T05:53:42;23.30;;;3.50;;
15049;SDS011;7622;42.724;23.250;2023-02-21T05:56:11;4.13;;;3.23;;
15049;SDS011;7622;42.724;23.250;2023-02-21T05:58:39;16.03;;;4.70;;
15049;SDS011;7622;42.724;23.250;2023-02-21T06:01:06;9.07;;;4.03;;
15049;SDS011;7622;42.724;23.250;2023-02-21T06:03:33;6.77;;;4.00;;
15049;SDS011;7622;42.724;23.250;2023-02-21T06:06:00;8.60;;;4.20;;
15049;SDS011;7622;42.724;23.250;2023-02-21T06:08:28;7.47;;;4.33;;
15049;SDS011;7622;42.724;23.250;2023-02-21T06:10:55;10.43;;;4.00;;
15049;SDS011;7622;42.724;23.250;2023-02-21T06:13:23;12.33;;;4.53;;
15049;SDS011;7622;42.724;23.250;2023-02-21T06:15:50;12.33;;;4.67;;
15049;SDS011;7622;42.724;23.250;2023-02-21T06:18:17;14.33;;;5.30;;
15049;SDS011;7622;42.724;23.250;2023-02-21T06:20:45;28.10;;;4.90;;
15049;SDS011;7622;42.724;23.250;2023-02-21T06:23:12;13.53;;;4.07;;
15049;SDS011;7622;42.724;23.250;2023-02-21T06:25:39;5.30;;;3.30;;
15049;SDS011;7622;42.724;23.250;2023-02-21T06:28:06;6.83;;;2.97;;
15049;SDS011;7622;42.724;23.250;2023-02-21T06:30:35;3.73;;;2.80;;
15049;SDS011;7622;42.724;23.250;2023-02-21T06:33:02;13.07;;;3.60;;
15049;SDS011;7622;42.724;23.250;2023-02-21T06:35:29;6.70;;;3.47;;
15049;SDS011;7622;42.724;23.250;2023-02-21T06:37:57;9.27;;;3.23;;
15049;SDS011;7622;42.724;23.250;2023-02-21T06:40:24;7.90;;;3.67;;
15049;SDS011;7622;42.724;23.250;2023-02-21T06:42:51;7.40;;;4.27;;
15049;SDS011;7622;42.724;23.250;2023-02-21T06:45:18;20.43;;;4.57;;
15049;SDS011;7622;42.724;23.250;2023-02-21T06:47:47;14.73;;;4.23;;
15049;SDS011;7622;42.724;23.250;2023-02-21T06:50:14;11.30;;;3.80;;
15049;SDS011;7622;42.724;23.250;2023-02-21T06:52:41;11.17;;;3.40;;
15049;SDS011;7622;42.724;23.250;2023-02-21T06:55:08;8.87;;;4.23;;
15049;SDS011;7622;42.724;23.250;2023-02-21T06:57:35;6.80;;;3.83;;
15049;SDS011;7622;42.724;23.250;2023-02-21T07:00:02;4.67;;;2.77;;
15049;SDS011;7622;42.724;23.250;2023-02-21T07:02:30;9.47;;;3.47;;
15049;SDS011;7622;42.724;23.250;2023-02-21T07:04:58;3.73;;;3.33;;
15049;SDS011;7622;42.724;23.250;2023-02-21T07:07:25;12.30;;;3.70;;
15049;SDS011;7622;42.724;23.250;2023-02-21T07:09:52;5.73;;;3.77;;
15049;SDS011;7622;42.724;23.250;2023-02-21T07:12:19;9.97;;;4.40;;
15049;SDS011;7622;42.724;23.250;2023-02-21T07:14:45;11.23;;;4.10;;
15049;SDS011;7622;42.724;23.250;2023-02-21T07:17:12;7.83;;;3.37;;
15049;SDS011;7622;42.724;23.250;2023-02-21T07:19:39;15.77;;;4.60;;
15049;SDS011;7622;42.724;23.250;2023-02-21T07:22:08;12.57;;;4.77;;
15049;SDS011;7622;42.724;23.250;2023-02-21T07:24:35;11.10;;;5.13;;
15049;SDS011;7622;42.724;23.250;2023-02-21T07:27:02;11.20;;;5.07;;
15049;SDS011;7622;42.724;23.250;2023-02-21T07:29:31;10.77;;;4.23;;
15049;SDS011;7622;42.724;23.250;2023-02-21T07:31:58;8.57;;;4.13;;
15049;SDS011;7622;42.724;23.250;2023-02-21T07:34:25;12.00;;;4.70;;
15049;SDS011;7622;42.724;23.250;2023-02-21T07:36:52;8.87;;;4.23;;
15049;SDS011;7622;42.724;23.250;2023-02-21T07:39:20;21.30;;;4.50;;
15049;SDS011;7622;42.724;23.250;2023-02-21T07:41:47;16.07;;;4.53;;
15049;SDS011;7622;42.724;23.250;2023-02-21T07:44:14;7.43;;;3.87;;
15049;SDS011;7622;42.724;23.250;2023-02-21T07:46:41;8.10;;;4.30;;
15049;SDS011;7622;42.724;23.250;2023-02-21T07:49:10;7.87;;;3.67;;
15049;SDS011;7622;42.724;23.250;2023-02-21T07:51:37;9.97;;;3.70;;
15049;SDS011;7622;42.724;23.250;2023-02-21T07:54:04;9.63;;;3.17;;
15049;SDS011;7622;42.724;23.250;2023-02-21T07:56:32;7.73;;;4.43;;
15049;SDS011;7622;42.724;23.250;2023-02-21T07:58:59;14.77;;;3.93;;
15049;SDS011;7622;42.724;23.250;2023-02-21T08:01:26;8.70;;;4.03;;
15049;SDS011;7622;42.724;23.250;2023-02-21T08:03:53;10.63;;;3.43;;
15049;SDS011;7622;42.724;23.250;2023-02-21T08:06:20;13.13;;;3.50;;
15049;SDS011;7622;42.724;23.250;2023-02-21T08:08:47;6.10;;;3.13;;
15049;SDS011;7622;42.724;23.250;2023-02-21T08:11:14;8.70;;;3.50;;
15049;SDS011;7622;42.724;23.250;2023-02-21T08:13:43;9.20;;;3.27;;
15049;SDS011;7622;42.724;23.250;2023-02-21T08:16:10;7.07;;;3.07;;
15049;SDS011;7622;42.724;23.250;2023-02-21T08:18:37;4.17;;;2.43;;
15049;SDS011;7622;42.724;23.250;2023-02-21T08:21:06;8.17;;;2.13;;
15049;SDS011;7622;42.724;23.250;2023-02-21T08:23:35;2.67;;;1.97;;
15049;SDS011;7622;42.724;23.250;2023-02-21T08:26:02;2.53;;;2.23;;
15049;SDS011;7622;42.724;23.250;2023-02-21T08:28:29;2.93;;;2.07;;
15049;SDS011;7622;42.724;23.250;2023-02-21T08:30:58;1.70;;;1.60;;
15049;SDS011;7622;42.724;23.250;2023-02-21T08:33:25;1.80;;;1.70;;
15049;SDS011;7622;42.724;23.250;2023-02-21T08:35:52;2.80;;;1.73;;
15049;SDS011;7622;42.724;23.250;2023-02-21T08:38:20;2.73;;;1.80;;
15049;SDS011;7622;42.724;23.250;2023-02-21T08:40:47;3.90;;;2.20;;
15049;SDS011;7622;42.724;23.250;2023-02-21T08:43:15;4.17;;;1.57;;
15049;SDS011;7622;42.724;23.250;2023-02-21T08:45:42;2.73;;;2.27;;
15049;SDS011;7622;42.724;23.250;2023-02-21T08:48:11;3.93;;;1.93;;
15049;SDS011;7622;42.724;23.250;2023-02-21T08:50:38;2.10;;;1.90;;
15049;SDS011;7622;42.724;23.250;2023-02-21T08:53:05;2.37;;;1.63;;
15049;SDS011;7622;42.724;23.250;2023-02-21T08:55:32;2.73;;;2.53;;
15049;SDS011;7622;42.724;23.250;2023-02-21T08:57:59;5.10;;;2.20;;
15049;SDS011;7622;42.724;23.250;2023-02-21T09:00:26;4.80;;;2.20;;
15049;SDS011;7622;42.724;23.250;2023-02-21T09:02:54;2.90;;;1.90;;
15049;SDS011;7622;42.724;23.250;2023-02-21T09:05:24;4.07;;;2.47;;
15049;SDS011;7622;42.724;23.250;2023-02-21T09:07:53;7.27;;;3.10;;
15049;SDS011;7622;42.724;23.250;2023-02-21T09:10:23;6.53;;;2.63;;
15049;SDS011;7622;42.724;23.250;2023-02-21T09:12:51;2.47;;;2.27;;
15049;SDS011;7622;42.724;23.250;2023-02-21T09:15:18;4.60;;;1.73;;
15049;SDS011;7622;42.724;23.250;2023-02-21T09:17:45;2.10;;;2.00;;
15049;SDS011;7622;42.724;23.250;2023-02-21T09:20:16;2.20;;;2.00;;
15049;SDS011;7622;42.724;23.250;2023-02-21T09:22:46;2.03;;;1.93;;
15049;SDS011;7622;42.724;23.250;2023-02-21T09:25:17;3.17;;;2.27;;
15049;SDS011;7622;42.724;23.250;2023-02-21T09:27:49;3.10;;;1.73;;
15049;SDS011;7622;42.724;23.250;2023-02-21T09:30:17;3.60;;;1.80;;
15049;SDS011;7622;42.724;23.250;2023-02-21T09:32:48;4.53;;;2.17;;
15049;SDS011;7622;42.724;23.250;2023-02-21T09:35:15;13.10;;;2.00;;
15049;SDS011;7622;42.724;23.250;2023-02-21T09:37:43;1.93;;;1.77;;
15049;SDS011;7622;42.724;23.250;2023-02-21T09:40:15;4.17;;;1.70;;
15049;SDS011;7622;42.724;23.250;2023-02-21T09:42:49;2.43;;;1.73;;
15049;SDS011;7622;42.724;23.250;2023-02-21T09:45:19;3.03;;;2.57;;
15049;SDS011;7622;42.724;23.250;2023-02-21T09:47:48;1.80;;;1.70;;
15049;SDS011;7622;42.724;23.250;2023-02-21T09:50:18;6.60;;;1.77;;
15049;SDS011;7622;42.724;23.250;2023-02-21T09:52:53;8.67;;;1.80;;
15049;SDS011;7622;42.724;23.250;2023-02-21T09:55:25;17.87;;;3.60;;
15049;SDS011;7622;42.724;23.250;2023-02-21T09:57:54;2.23;;;2.03;;
15049;SDS011;7622;42.724;23.250;2023-02-21T10:00:22;1.97;;;1.87;;
15049;SDS011;7622;42.724;23.250;2023-02-21T10:02:56;4.30;;;1.30;;
15049;SDS011;7622;42.724;23.250;2023-02-21T10:05:38;3.37;;;1.50;;
15049;SDS011;7622;42.724;23.250;2023-02-21T10:08:15;3.80;;;1.57;;
15049;SDS011;7622;42.724;23.250;2023-02-21T10:10:49;3.10;;;1.50;;
15049;SDS011;7622;42.724;23.250;2023-02-21T10:13:22;4.87;;;1.90;;
15049;SDS011;7622;42.724;23.250;2023-02-21T10:15:58;20.53;;;2.77;;
15049;SDS011;7622;42.724;23.250;2023-02-21T10:18:31;2.17;;;1.40;;
15049;SDS011;7622;42.724;23.250;2023-02-21T10:21:08;7.67;;;1.73;;
15049;SDS011;7622;42.724;23.250;2023-02-21T10:23:41;2.63;;;1.80;;
15049;SDS011;7622;42.724;23.250;2023-02-21T10:26:12;1.97;;;1.77;;
15049;SDS011;7622;42.724;23.250;2023-02-21T10:28:41;3.67;;;1.70;;
15049;SDS011;7622;42.724;23.250;2023-02-21T10:31:11;5.70;;;2.10;;
15049;SDS011;7622;42.724;23.250;2023-02-21T10:33:43;4.20;;;2.13;;
15049;SDS011;7622;42.724;23.250;2023-02-21T10:36:11;1.60;;;1.40;;
15049;SDS011;7622;42.724;23.250;2023-02-21T10:38:46;3.07;;;1.70;;
15049;SDS011;7622;42.724;23.250;2023-02-21T10:41:20;3.43;;;1.80;;
15049;SDS011;7622;42.724;23.250;2023-02-21T10:43:48;1.50;;;1.40;;
15049;SDS011;7622;42.724;23.250;2023-02-21T10:46:21;1.53;;;1.37;;
15049;SDS011;7622;42.724;23.250;2023-02-21T10:48:54;9.67;;;1.67;;
15049;SDS011;7622;42.724;23.250;2023-02-21T10:51:35;2.07;;;1.53;;
15049;SDS011;7622;42.724;23.250;2023-02-21T10:54:20;3.77;;;1.60;;
15049;SDS011;7622;42.724;23.250;2023-02-21T10:56:48;4.57;;;1.50;;
15049;SDS011;7622;42.724;23.250;2023-02-21T10:59:20;1.53;;;1.43;;
15049;SDS011;7622;42.724;23.250;2023-02-21T11:01:50;8.10;;;1.67;;
15049;SDS011;7622;42.724;23.250;2023-02-21T11:04:23;1.33;;;1.30;;
15049;SDS011;7622;42.724;23.250;2023-02-21T11:06:53;2.57;;;1.87;;
15049;SDS011;7622;42.724;23.250;2023-02-21T11:09:30;6.63;;;1.77;;
15049;SDS011;7622;42.724;23.250;2023-02-21T11:12:00;3.63;;;1.70;;
15049;SDS011;7622;42.724;23.250;2023-02-21T11:14:29;5.83;;;1.40;;
15049;SDS011;7622;42.724;23.250;2023-02-21T11:17:11;5.93;;;1.87;;
15049;SDS011;7622;42.724;23.250;2023-02-21T11:19:41;1.50;;;1.40;;
15049;SDS011;7622;42.724;23.250;2023-02-21T11:22:09;2.67;;;1.90;;
15049;SDS011;7622;42.724;23.250;2023-02-21T11:24:46;44.17;;;4.93;;
15049;SDS011;7622;42.724;23.250;2023-02-21T11:27:15;2.50;;;1.70;;
15049;SDS011;7622;42.724;23.250;2023-02-21T11:29:43;3.73;;;1.40;;
15049;SDS011;7622;42.724;23.250;2023-02-21T11:32:18;6.97;;;2.20;;
15049;SDS011;7622;42.724;23.250;2023-02-21T11:34:50;3.73;;;1.30;;
15049;SDS011;7622;42.724;23.250;2023-02-21T11:37:21;1.60;;;1.50;;
15049;SDS011;7622;42.724;23.250;2023-02-21T11:39:50;3.03;;;1.50;;
15049;SDS011;7622;42.724;23.250;2023-02-21T11:42:24;13.37;;;1.83;;
15049;SDS011;7622;42.724;23.250;2023-02-21T11:45:05;21.03;;;3.83;;
15049;SDS011;7622;42.724;23.250;2023-02-21T11:47:41;4.73;;;1.40;;
15049;SDS011;7622;42.724;23.250;2023-02-21T11:50:14;1.23;;;1.23;;
15049;SDS011;7622;42.724;23.250;2023-02-21T11:52:50;3.73;;;2.00;;
15049;SDS011;7622;42.724;23.250;2023-02-21T11:55:23;2.83;;;1.60;;
15049;SDS011;7622;42.724;23.250;2023-02-21T11:57:53;5.93;;;1.80;;
15049;SDS011;7622;42.724;23.250;2023-02-21T12:00:29;3.83;;;1.70;;
15049;SDS011;7622;42.724;23.250;2023-02-21T12:06:09;1.40;;;1.30;;
15049;SDS011;7622;42.724;23.250;2023-02-21T12:08:44;3.23;;;1.60;;
15049;SDS011;7622;42.724;23.250;2023-02-21T12:11:20;3.17;;;1.90;;
15049;SDS011;7622;42.724;23.250;2023-02-21T12:14:02;5.37;;;1.60;;
15049;SDS011;7622;42.724;23.250;2023-02-21T12:16:52;1.90;;;1.47;;
15049;SDS011;7622;42.724;23.250;2023-02-21T12:19:36;25.40;;;3.47;;
15049;SDS011;7622;42.724;23.250;2023-02-21T12:22:16;6.50;;;1.80;;
15049;SDS011;7622;42.724;23.250;2023-02-21T12:24:57;5.97;;;1.87;;
15049;SDS011;7622;42.724;23.250;2023-02-21T12:27:37;3.97;;;2.03;;
15049;SDS011;7622;42.724;23.250;2023-02-21T12:30:18;2.37;;;1.60;;
15049;SDS011;7622;42.724;23.250;2023-02-21T12:32:57;6.93;;;1.63;;
15049;SDS011;7622;42.724;23.250;2023-02-21T12:38:43;5.10;;;2.03;;
15049;SDS011;7622;42.724;23.250;2023-02-21T12:41:22;3.93;;;1.80;;
15049;SDS011;7622;42.724;23.250;2023-02-21T12:44:04;4.53;;;2.57;;
15049;SDS011;7622;42.724;23.250;2023-02-21T12:46:39;3.80;;;2.00;;
15049;SDS011;7622;42.724;23.250;2023-02-21T12:49:12;1.40;;;1.30;;
15049;SDS011;7622;42.724;23.250;2023-02-21T12:51:44;3.43;;;1.43;;
15049;SDS011;7622;42.724;23.250;2023-02-21T12:54:18;2.43;;;1.73;;
15049;SDS011;7622;42.724;23.250;2023-02-21T12:56:50;9.50;;;2.07;;
15049;SDS011;7622;42.724;23.250;2023-02-21T12:59:23;3.60;;;1.80;;
15049;SDS011;7622;42.724;23.250;2023-02-21T13:01:57;1.80;;;1.70;;
15049;SDS011;7622;42.724;23.250;2023-02-21T13:04:31;3.97;;;1.63;;
15049;SDS011;7622;42.724;23.250;2023-02-21T13:07:05;3.50;;;1.93;;
15049;SDS011;7622;42.724;23.250;2023-02-21T13:09:44;2.63;;;1.50;;
15049;SDS011;7622;42.724;23.250;2023-02-21T13:12:18;1.70;;;1.60;;
15049;SDS011;7622;42.724;23.250;2023-02-21T13:14:52;2.40;;;1.40;;
15049;SDS011;7622;42.724;23.250;2023-02-21T13:17:22;5.03;;;1.70;;
15049;SDS011;7622;42.724;23.250;2023-02-21T13:19:52;1.80;;;1.60;;
15049;SDS011;7622;42.724;23.250;2023-02-21T13:25:59;5.57;;;1.63;;
15049;SDS011;7622;42.724;23.250;2023-02-21T13:28:34;10.87;;;2.03;;
15049;SDS011;7622;42.724;23.250;2023-02-21T13:31:05;5.23;;;2.00;;
15049;SDS011;7622;42.724;23.250;2023-02-21T13:33:43;6.57;;;1.93;;
15049;SDS011;7622;42.724;23.250;2023-02-21T13:36:17;2.57;;;1.73;;
15049;SDS011;7622;42.724;23.250;2023-02-21T13:38:55;2.50;;;1.80;;
15049;SDS011;7622;42.724;23.250;2023-02-21T13:41:26;1.83;;;1.50;;
15049;SDS011;7622;42.724;23.250;2023-02-21T13:43:55;7.90;;;2.00;;
15049;SDS011;7622;42.724;23.250;2023-02-21T13:49:47;2.67;;;1.70;;
15049;SDS011;7622;42.724;23.250;2023-02-21T13:52:26;5.77;;;2.77;;
15049;SDS011;7622;42.724;23.250;2023-02-21T14:01:13;1.43;;;1.33;;
15049;SDS011;7622;42.724;23.250;2023-02-21T14:03:49;8.93;;;1.77;;
15049;SDS011;7622;42.724;23.250;2023-02-21T14:06:32;2.13;;;1.70;;
15049;SDS011;7622;42.724;23.250;2023-02-21T14:09:03;2.17;;;1.93;;
15049;SDS011;7622;42.724;23.250;2023-02-21T14:11:42;5.20;;;1.87;;
15049;SDS011;7622;42.724;23.250;2023-02-21T14:14:23;6.90;;;1.60;;
15049;SDS011;7622;42.724;23.250;2023-02-21T14:16:57;3.33;;;1.80;;
15049;SDS011;7622;42.724;23.250;2023-02-21T14:19:30;9.07;;;2.07;;
15049;SDS011;7622;42.724;23.250;2023-02-21T14:22:03;3.90;;;1.97;;
15049;SDS011;7622;42.724;23.250;2023-02-21T14:24:37;2.10;;;1.90;;
15049;SDS011;7622;42.724;23.250;2023-02-21T14:33:06;2.20;;;1.87;;
15049;SDS011;7622;42.724;23.250;2023-02-21T14:35:50;6.53;;;1.90;;
15049;SDS011;7622;42.724;23.250;2023-02-21T14:38:31;2.13;;;1.80;;
15049;SDS011;7622;42.724;23.250;2023-02-21T14:41:08;2.80;;;1.90;;
15049;SDS011;7622;42.724;23.250;2023-02-21T14:43:54;1.70;;;1.60;;
15049;SDS011;7622;42.724;23.250;2023-02-21T14:46:50;5.40;;;2.60;;
15049;SDS011;7622;42.724;23.250;2023-02-21T14:49:54;6.30;;;2.20;;
15049;SDS011;7622;42.724;23.250;2023-02-21T14:52:51;2.00;;;1.70;;
15049;SDS011;7622;42.724;23.250;2023-02-21T14:55:38;9.07;;;2.20;;
15049;SDS011;7622;42.724;23.250;2023-02-21T14:58:42;4.03;;;2.33;;
15049;SDS011;7622;42.724;23.250;2023-02-21T15:01:36;2.70;;;1.80;;
15049;SDS011;7622;42.724;23.250;2023-02-21T15:04:25;5.93;;;2.23;;
15049;SDS011;7622;42.724;23.250;2023-02-21T15:07:01;4.23;;;2.17;;
15049;SDS011;7622;42.724;23.250;2023-02-21T15:09:37;3.70;;;2.00;;
15049;SDS011;7622;42.724;23.250;2023-02-21T15:12:06;1.93;;;1.83;;
15049;SDS011;7622;42.724;23.250;2023-02-21T15:14:39;15.37;;;2.30;;
15049;SDS011;7622;42.724;23.250;2023-02-21T15:17:15;2.53;;;2.00;;
15049;SDS011;7622;42.724;23.250;2023-02-21T15:19:45;5.43;;;2.47;;
15049;SDS011;7622;42.724;23.250;2023-02-21T15:22:20;7.77;;;2.10;;
15049;SDS011;7622;42.724;23.250;2023-02-21T15:25:01;7.90;;;2.20;;
15049;SDS011;7622;42.724;23.250;2023-02-21T15:27:53;6.80;;;2.50;;
15049;SDS011;7622;42.724;23.250;2023-02-21T15:30:23;15.70;;;3.00;;
15049;SDS011;7622;42.724;23.250;2023-02-21T15:32:54;4.50;;;2.70;;
15049;SDS011;7622;42.724;23.250;2023-02-21T15:35:26;7.47;;;2.67;;
15049;SDS011;7622;42.724;23.250;2023-02-21T15:37:59;8.70;;;2.83;;
15049;SDS011;7622;42.724;23.250;2023-02-21T15:40:31;3.60;;;2.90;;
15049;SDS011;7622;42.724;23.250;2023-02-21T15:43:00;10.53;;;3.50;;
15049;SDS011;7622;42.724;23.250;2023-02-21T15:45:29;5.67;;;3.30;;
15049;SDS011;7622;42.724;23.250;2023-02-21T15:47:58;9.87;;;3.40;;
15049;SDS011;7622;42.724;23.250;2023-02-21T15:50:31;12.67;;;3.63;;
15049;SDS011;7622;42.724;23.250;2023-02-21T15:53:11;4.33;;;3.33;;
15049;SDS011;7622;42.724;23.250;2023-02-21T15:55:41;6.33;;;3.43;;